Terminal Aerodrome Forecast
Issued by NWS La Crosse, WI

Current Version | Previous Version | Text Only | Print | Product List | Glossary On
Versions: 1 2 3 4 5 6 7 8 9 10 11 12 13 14 15 16 17 18 19 20 21 22 23 24 25 26 27 28 29 30 31 32 33 34 35 36 37 38 39 40 41 42 43 44
000
FTUS43 KARX 131330 AAA
TAFLSE
TAF AMD
KLSE 131330Z 1314/1412 28005KT P6SM BKN015
     FM131500 29008KT P6SM SCT025
     FM131700 30013G21KT P6SM SCT040
     FM132200 30012KT P6SM SKC
     FM140100 30006KT P6SM SKC=

USA.gov is the U.S. government's official web portal to all federal, state and local government web resources and services.